sensor_id;sensor_type;location;lat;lon;timestamp;temperature;humidity
15131;DHT22;7666;50.920;4.628;2023-02-15T00:02:11;2.70;99.90
15131;DHT22;7666;50.920;4.628;2023-02-15T00:04:57;2.60;99.90
15131;DHT22;7666;50.920;4.628;2023-02-15T00:07:43;2.60;99.90
15131;DHT22;7666;50.920;4.628;2023-02-15T00:10:29;2.70;99.90
15131;DHT22;7666;50.920;4.628;2023-02-15T00:13:15;2.70;99.90
15131;DHT22;7666;50.920;4.628;2023-02-15T00:16:05;2.80;99.90
15131;DHT22;7666;50.920;4.628;2023-02-15T00:18:52;2.80;99.90
15131;DHT22;7666;50.920;4.628;2023-02-15T00:21:39;2.70;99.90
15131;DHT22;7666;50.920;4.628;2023-02-15T00:24:25;2.60;99.90
15131;DHT22;7666;50.920;4.628;2023-02-15T00:27:11;2.50;99.90
15131;DHT22;7666;50.920;4.628;2023-02-15T00:29:58;2.30;99.90
15131;DHT22;7666;50.920;4.628;2023-02-15T00:32:43;2.30;99.90
15131;DHT22;7666;50.920;4.628;2023-02-15T00:35:29;2.40;99.90
15131;DHT22;7666;50.920;4.628;2023-02-15T00:38:15;2.50;99.90
15131;DHT22;7666;50.920;4.628;2023-02-15T00:41:04;2.50;99.90
15131;DHT22;7666;50.920;4.628;2023-02-15T00:43:50;2.50;99.90
15131;DHT22;7666;50.920;4.628;2023-02-15T00:46:36;2.40;99.90
15131;DHT22;7666;50.920;4.628;2023-02-15T00:49:22;2.10;99.90
15131;DHT22;7666;50.920;4.628;2023-02-15T00:52:08;1.90;99.90
15131;DHT22;7666;50.920;4.628;2023-02-15T00:54:54;1.80;99.90
15131;DHT22;7666;50.920;4.628;2023-02-15T00:57:40;1.90;99.90
15131;DHT22;7666;50.920;4.628;2023-02-15T01:00:26;1.90;99.90
15131;DHT22;7666;50.920;4.628;2023-02-15T01:03:14;1.90;99.90
15131;DHT22;7666;50.920;4.628;2023-02-15T01:06:01;1.80;99.90
15131;DHT22;7666;50.920;4.628;2023-02-15T01:08:47;1.80;99.90
15131;DHT22;7666;50.920;4.628;2023-02-15T01:11:33;1.60;99.90
15131;DHT22;7666;50.920;4.628;2023-02-15T01:14:19;1.50;99.90
15131;DHT22;7666;50.920;4.628;2023-02-15T01:17:05;1.50;99.90
15131;DHT22;7666;50.920;4.628;2023-02-15T01:19:51;1.80;99.90
15131;DHT22;7666;50.920;4.628;2023-02-15T01:22:38;2.30;99.90
15131;DHT22;7666;50.920;4.628;2023-02-15T01:25:24;2.70;99.90
15131;DHT22;7666;50.920;4.628;2023-02-15T01:28:11;2.80;99.90
15131;DHT22;7666;50.920;4.628;2023-02-15T01:30:57;2.90;99.90
15131;DHT22;7666;50.920;4.628;2023-02-15T01:33:46;2.80;99.90
15131;DHT22;7666;50.920;4.628;2023-02-15T01:36:34;2.60;99.90
15131;DHT22;7666;50.920;4.628;2023-02-15T01:39:20;2.40;99.90
15131;DHT22;7666;50.920;4.628;2023-02-15T01:42:12;2.40;99.90
15131;DHT22;7666;50.920;4.628;2023-02-15T01:45:27;2.40;99.90
15131;DHT22;7666;50.920;4.628;2023-02-15T01:48:23;2.50;99.90
15131;DHT22;7666;50.920;4.628;2023-02-15T01:51:11;2.50;99.90
15131;DHT22;7666;50.920;4.628;2023-02-15T01:54:03;2.40;99.90
15131;DHT22;7666;50.920;4.628;2023-02-15T01:56:52;2.20;99.90
15131;DHT22;7666;50.920;4.628;2023-02-15T01:59:39;2.20;99.90
15131;DHT22;7666;50.920;4.628;2023-02-15T02:02:29;2.20;99.90
15131;DHT22;7666;50.920;4.628;2023-02-15T02:05:16;2.10;99.90
15131;DHT22;7666;50.920;4.628;2023-02-15T02:08:02;2.00;99.90
15131;DHT22;7666;50.920;4.628;2023-02-15T02:10:48;1.90;99.90
15131;DHT22;7666;50.920;4.628;2023-02-15T02:13:34;1.80;99.90
15131;DHT22;7666;50.920;4.628;2023-02-15T02:31:49;1.80;99.90
15131;DHT22;7666;50.920;4.628;2023-02-15T02:34:55;1.60;99.90
15131;DHT22;7666;50.920;4.628;2023-02-15T02:37:59;1.50;99.90
15131;DHT22;7666;50.920;4.628;2023-02-15T02:41:02;1.50;99.90
15131;DHT22;7666;50.920;4.628;2023-02-15T02:46:55;1.40;99.90
15131;DHT22;7666;50.920;4.628;2023-02-15T02:49:43;1.40;99.90
15131;DHT22;7666;50.920;4.628;2023-02-15T02:52:38;1.40;99.90
15131;DHT22;7666;50.920;4.628;2023-02-15T02:55:37;1.50;99.90
15131;DHT22;7666;50.920;4.628;2023-02-15T02:58:39;1.50;99.90
15131;DHT22;7666;50.920;4.628;2023-02-15T03:01:29;1.50;99.90
15131;DHT22;7666;50.920;4.628;2023-02-15T03:04:30;1.50;99.90
15131;DHT22;7666;50.920;4.628;2023-02-15T03:07:20;1.60;99.90
15131;DHT22;7666;50.920;4.628;2023-02-15T03:10:08;1.60;99.90
15131;DHT22;7666;50.920;4.628;2023-02-15T03:12:55;1.70;99.90
15131;DHT22;7666;50.920;4.628;2023-02-15T03:15:42;1.70;99.90
15131;DHT22;7666;50.920;4.628;2023-02-15T03:18:51;1.70;99.90
15131;DHT22;7666;50.920;4.628;2023-02-15T03:24:48;1.70;99.90
15131;DHT22;7666;50.920;4.628;2023-02-15T03:27:42;1.70;99.90
15131;DHT22;7666;50.920;4.628;2023-02-15T03:30:30;1.70;99.90
15131;DHT22;7666;50.920;4.628;2023-02-15T03:33:17;1.70;99.90
15131;DHT22;7666;50.920;4.628;2023-02-15T03:39:15;1.70;99.90
15131;DHT22;7666;50.920;4.628;2023-02-15T03:45:06;1.70;99.90
15131;DHT22;7666;50.920;4.628;2023-02-15T03:47:56;1.60;99.90
15131;DHT22;7666;50.920;4.628;2023-02-15T03:50:43;1.50;99.90
15131;DHT22;7666;50.920;4.628;2023-02-15T03:53:49;1.40;99.90
15131;DHT22;7666;50.920;4.628;2023-02-15T03:56:41;1.40;99.90
15131;DHT22;7666;50.920;4.628;2023-02-15T03:59:27;1.40;99.90
15131;DHT22;7666;50.920;4.628;2023-02-15T04:02:40;1.40;99.90
15131;DHT22;7666;50.920;4.628;2023-02-15T04:05:27;1.40;99.90
15131;DHT22;7666;50.920;4.628;2023-02-15T04:08:13;1.40;99.90
15131;DHT22;7666;50.920;4.628;2023-02-15T04:10:59;1.40;99.90
15131;DHT22;7666;50.920;4.628;2023-02-15T04:13:45;1.40;99.90
15131;DHT22;7666;50.920;4.628;2023-02-15T04:16:31;1.30;99.90
15131;DHT22;7666;50.920;4.628;2023-02-15T04:19:17;1.30;99.90
15131;DHT22;7666;50.920;4.628;2023-02-15T04:22:22;1.40;99.90
15131;DHT22;7666;50.920;4.628;2023-02-15T04:25:27;1.40;99.90
15131;DHT22;7666;50.920;4.628;2023-02-15T04:28:12;1.40;99.90
15131;DHT22;7666;50.920;4.628;2023-02-15T04:30:58;1.40;99.90
15131;DHT22;7666;50.920;4.628;2023-02-15T04:33:44;1.40;99.90
15131;DHT22;7666;50.920;4.628;2023-02-15T04:36:30;1.40;99.90
15131;DHT22;7666;50.920;4.628;2023-02-15T04:39:18;1.40;99.90
15131;DHT22;7666;50.920;4.628;2023-02-15T04:42:04;1.40;99.90
15131;DHT22;7666;50.920;4.628;2023-02-15T04:44:50;1.30;99.90
15131;DHT22;7666;50.920;4.628;2023-02-15T04:47:36;1.30;99.90
15131;DHT22;7666;50.920;4.628;2023-02-15T04:50:22;1.20;99.90
15131;DHT22;7666;50.920;4.628;2023-02-15T04:53:08;1.10;99.90
15131;DHT22;7666;50.920;4.628;2023-02-15T04:55:54;1.00;99.90
15131;DHT22;7666;50.920;4.628;2023-02-15T04:58:40;1.00;99.90
15131;DHT22;7666;50.920;4.628;2023-02-15T05:01:26;1.00;99.90
15131;DHT22;7666;50.920;4.628;2023-02-15T05:04:12;0.90;99.90
15131;DHT22;7666;50.920;4.628;2023-02-15T05:06:58;0.90;99.90
15131;DHT22;7666;50.920;4.628;2023-02-15T05:09:44;0.90;99.90
15131;DHT22;7666;50.920;4.628;2023-02-15T05:12:30;1.00;99.90
15131;DHT22;7666;50.920;4.628;2023-02-15T05:15:16;1.10;99.90
15131;DHT22;7666;50.920;4.628;2023-02-15T05:18:02;1.10;99.90
15131;DHT22;7666;50.920;4.628;2023-02-15T05:20:48;1.10;99.90
15131;DHT22;7666;50.920;4.628;2023-02-15T05:23:35;1.10;99.90
15131;DHT22;7666;50.920;4.628;2023-02-15T05:26:23;1.30;99.90
15131;DHT22;7666;50.920;4.628;2023-02-15T05:29:28;0.90;99.90
15131;DHT22;7666;50.920;4.628;2023-02-15T05:32:15;0.80;99.90
15131;DHT22;7666;50.920;4.628;2023-02-15T05:35:01;0.70;99.90
15131;DHT22;7666;50.920;4.628;2023-02-15T05:37:47;0.70;99.90
15131;DHT22;7666;50.920;4.628;2023-02-15T05:40:33;0.70;99.90
15131;DHT22;7666;50.920;4.628;2023-02-15T05:43:19;0.60;99.90
15131;DHT22;7666;50.920;4.628;2023-02-15T05:46:06;0.70;99.90
15131;DHT22;7666;50.920;4.628;2023-02-15T05:48:52;0.60;99.90
15131;DHT22;7666;50.920;4.628;2023-02-15T05:51:38;0.50;99.90
15131;DHT22;7666;50.920;4.628;2023-02-15T05:54:24;0.50;99.90
15131;DHT22;7666;50.920;4.628;2023-02-15T05:57:10;0.50;99.90
15131;DHT22;7666;50.920;4.628;2023-02-15T05:59:56;0.70;99.90
15131;DHT22;7666;50.920;4.628;2023-02-15T06:02:42;0.70;99.90
15131;DHT22;7666;50.920;4.628;2023-02-15T06:05:28;0.80;99.90
15131;DHT22;7666;50.920;4.628;2023-02-15T06:08:15;0.80;99.90
15131;DHT22;7666;50.920;4.628;2023-02-15T06:11:01;0.80;99.90
15131;DHT22;7666;50.920;4.628;2023-02-15T06:13:47;0.80;99.90
15131;DHT22;7666;50.920;4.628;2023-02-15T06:16:33;0.80;99.90
15131;DHT22;7666;50.920;4.628;2023-02-15T06:19:19;0.80;99.90
15131;DHT22;7666;50.920;4.628;2023-02-15T06:22:06;0.80;99.90
15131;DHT22;7666;50.920;4.628;2023-02-15T06:24:52;0.80;99.90
15131;DHT22;7666;50.920;4.628;2023-02-15T06:27:41;0.80;99.90
15131;DHT22;7666;50.920;4.628;2023-02-15T06:30:27;0.80;99.90
15131;DHT22;7666;50.920;4.628;2023-02-15T06:33:14;0.80;99.90
15131;DHT22;7666;50.920;4.628;2023-02-15T06:36:00;0.80;99.90
15131;DHT22;7666;50.920;4.628;2023-02-15T06:38:46;0.80;99.90
15131;DHT22;7666;50.920;4.628;2023-02-15T06:41:32;0.80;99.90
15131;DHT22;7666;50.920;4.628;2023-02-15T06:44:18;0.70;99.90
15131;DHT22;7666;50.920;4.628;2023-02-15T06:47:04;0.70;99.90
15131;DHT22;7666;50.920;4.628;2023-02-15T06:49:50;0.60;99.90
15131;DHT22;7666;50.920;4.628;2023-02-15T06:52:36;0.50;99.90
15131;DHT22;7666;50.920;4.628;2023-02-15T06:55:22;0.50;99.90
15131;DHT22;7666;50.920;4.628;2023-02-15T06:58:08;0.50;99.90
15131;DHT22;7666;50.920;4.628;2023-02-15T07:00:54;0.60;99.90
15131;DHT22;7666;50.920;4.628;2023-02-15T07:03:40;0.70;99.90
15131;DHT22;7666;50.920;4.628;2023-02-15T07:06:26;0.90;99.90
15131;DHT22;7666;50.920;4.628;2023-02-15T07:09:16;1.00;99.90
15131;DHT22;7666;50.920;4.628;2023-02-15T07:12:02;1.10;99.90
15131;DHT22;7666;50.920;4.628;2023-02-15T07:15:14;1.20;99.90
15131;DHT22;7666;50.920;4.628;2023-02-15T07:18:00;1.70;99.90
15131;DHT22;7666;50.920;4.628;2023-02-15T07:20:46;2.10;99.90
15131;DHT22;7666;50.920;4.628;2023-02-15T07:23:32;2.60;99.90
15131;DHT22;7666;50.920;4.628;2023-02-15T07:26:18;3.30;99.90
15131;DHT22;7666;50.920;4.628;2023-02-15T07:29:04;4.10;99.90
15131;DHT22;7666;50.920;4.628;2023-02-15T07:31:50;4.70;99.90
15131;DHT22;7666;50.920;4.628;2023-02-15T07:34:36;5.00;99.90
15131;DHT22;7666;50.920;4.628;2023-02-15T07:37:23;5.50;99.90
15131;DHT22;7666;50.920;4.628;2023-02-15T07:40:09;5.90;99.90
15131;DHT22;7666;50.920;4.628;2023-02-15T07:42:58;6.30;99.90
15131;DHT22;7666;50.920;4.628;2023-02-15T07:45:44;6.30;99.90
15131;DHT22;7666;50.920;4.628;2023-02-15T07:48:31;6.10;99.90
15131;DHT22;7666;50.920;4.628;2023-02-15T07:51:17;6.20;99.90
15131;DHT22;7666;50.920;4.628;2023-02-15T07:54:03;6.60;99.90
15131;DHT22;7666;50.920;4.628;2023-02-15T07:56:49;7.00;99.90
15131;DHT22;7666;50.920;4.628;2023-02-15T07:59:35;7.50;99.90
15131;DHT22;7666;50.920;4.628;2023-02-15T08:02:21;7.90;99.90
15131;DHT22;7666;50.920;4.628;2023-02-15T08:05:07;8.20;99.90
15131;DHT22;7666;50.920;4.628;2023-02-15T08:07:53;8.80;99.90
15131;DHT22;7666;50.920;4.628;2023-02-15T08:10:39;9.00;99.90
15131;DHT22;7666;50.920;4.628;2023-02-15T08:13:46;9.50;99.90
15131;DHT22;7666;50.920;4.628;2023-02-15T08:16:47;9.80;99.90
15131;DHT22;7666;50.920;4.628;2023-02-15T08:19:33;9.50;99.90
15131;DHT22;7666;50.920;4.628;2023-02-15T08:22:20;9.10;99.90
15131;DHT22;7666;50.920;4.628;2023-02-15T08:25:06;8.40;99.90
15131;DHT22;7666;50.920;4.628;2023-02-15T08:27:52;7.80;99.90
15131;DHT22;7666;50.920;4.628;2023-02-15T08:30:38;7.40;99.90
15131;DHT22;7666;50.920;4.628;2023-02-15T08:33:24;7.10;99.90
15131;DHT22;7666;50.920;4.628;2023-02-15T08:36:14;6.80;99.90
15131;DHT22;7666;50.920;4.628;2023-02-15T08:39:03;6.70;99.90
15131;DHT22;7666;50.920;4.628;2023-02-15T08:41:49;6.60;99.90
15131;DHT22;7666;50.920;4.628;2023-02-15T08:44:35;6.60;99.90
15131;DHT22;7666;50.920;4.628;2023-02-15T08:47:21;6.60;99.90
15131;DHT22;7666;50.920;4.628;2023-02-15T08:50:07;6.60;99.90
15131;DHT22;7666;50.920;4.628;2023-02-15T08:52:53;6.60;99.90
15131;DHT22;7666;50.920;4.628;2023-02-15T08:55:39;6.60;99.90
15131;DHT22;7666;50.920;4.628;2023-02-15T08:58:25;6.60;99.90
15131;DHT22;7666;50.920;4.628;2023-02-15T09:01:14;6.70;99.90
15131;DHT22;7666;50.920;4.628;2023-02-15T09:04:05;6.70;99.90
15131;DHT22;7666;50.920;4.628;2023-02-15T09:06:54;6.80;99.90
15131;DHT22;7666;50.920;4.628;2023-02-15T09:09:40;7.00;99.90
15131;DHT22;7666;50.920;4.628;2023-02-15T09:12:26;7.00;99.90
15131;DHT22;7666;50.920;4.628;2023-02-15T09:15:12;7.10;99.90
15131;DHT22;7666;50.920;4.628;2023-02-15T09:17:59;7.30;99.90
15131;DHT22;7666;50.920;4.628;2023-02-15T09:20:48;7.40;99.90
15131;DHT22;7666;50.920;4.628;2023-02-15T09:23:35;7.60;99.90
15131;DHT22;7666;50.920;4.628;2023-02-15T09:26:23;7.70;99.90
15131;DHT22;7666;50.920;4.628;2023-02-15T09:29:10;7.80;99.90
15131;DHT22;7666;50.920;4.628;2023-02-15T09:31:56;8.00;99.90
15131;DHT22;7666;50.920;4.628;2023-02-15T09:34:42;8.10;99.90
15131;DHT22;7666;50.920;4.628;2023-02-15T09:37:30;8.30;99.90
15131;DHT22;7666;50.920;4.628;2023-02-15T09:40:17;8.50;99.90
15131;DHT22;7666;50.920;4.628;2023-02-15T09:43:22;8.70;99.90
15131;DHT22;7666;50.920;4.628;2023-02-15T09:46:20;8.80;99.90
15131;DHT22;7666;50.920;4.628;2023-02-15T09:49:39;9.00;99.90
15131;DHT22;7666;50.920;4.628;2023-02-15T10:01:36;9.30;99.90
15131;DHT22;7666;50.920;4.628;2023-02-15T10:07:55;9.40;99.90
15131;DHT22;7666;50.920;4.628;2023-02-15T10:11:05;9.50;99.90
15131;DHT22;7666;50.920;4.628;2023-02-15T10:14:37;9.50;99.90
15131;DHT22;7666;50.920;4.628;2023-02-15T10:27:13;9.90;99.90
15131;DHT22;7666;50.920;4.628;2023-02-15T10:33:03;10.20;99.90
15131;DHT22;7666;50.920;4.628;2023-02-15T10:36:28;10.30;99.90
15131;DHT22;7666;50.920;4.628;2023-02-15T10:39:22;10.30;99.90
15131;DHT22;7666;50.920;4.628;2023-02-15T10:42:19;10.50;99.90
15131;DHT22;7666;50.920;4.628;2023-02-15T10:51:38;10.90;99.90
15131;DHT22;7666;50.920;4.628;2023-02-15T10:54:36;11.00;99.90
15131;DHT22;7666;50.920;4.628;2023-02-15T10:58:08;11.00;99.90
15131;DHT22;7666;50.920;4.628;2023-02-15T11:04:09;11.20;99.90
15131;DHT22;7666;50.920;4.628;2023-02-15T11:07:04;11.30;99.90
15131;DHT22;7666;50.920;4.628;2023-02-15T11:10:00;11.50;99.90
15131;DHT22;7666;50.920;4.628;2023-02-15T11:12:47;11.60;99.90
15131;DHT22;7666;50.920;4.628;2023-02-15T11:15:41;11.70;99.90
15131;DHT22;7666;50.920;4.628;2023-02-15T11:18:39;11.80;99.90
15131;DHT22;7666;50.920;4.628;2023-02-15T11:21:36;11.90;99.90
15131;DHT22;7666;50.920;4.628;2023-02-15T11:24:28;12.00;99.90
15131;DHT22;7666;50.920;4.628;2023-02-15T11:27:28;12.10;99.90
15131;DHT22;7666;50.920;4.628;2023-02-15T11:30:22;12.20;99.90
15131;DHT22;7666;50.920;4.628;2023-02-15T11:33:16;12.20;99.90
15131;DHT22;7666;50.920;4.628;2023-02-15T11:36:08;12.30;99.90
15131;DHT22;7666;50.920;4.628;2023-02-15T11:39:01;12.30;99.90
15131;DHT22;7666;50.920;4.628;2023-02-15T11:41:53;12.30;99.90
15131;DHT22;7666;50.920;4.628;2023-02-15T11:45:00;12.30;99.90
15131;DHT22;7666;50.920;4.628;2023-02-15T11:47:47;12.30;99.90
15131;DHT22;7666;50.920;4.628;2023-02-15T11:50:33;12.20;99.90
15131;DHT22;7666;50.920;4.628;2023-02-15T11:53:21;12.30;99.90
15131;DHT22;7666;50.920;4.628;2023-02-15T11:56:15;12.30;99.90
15131;DHT22;7666;50.920;4.628;2023-02-15T11:59:08;12.40;99.90
15131;DHT22;7666;50.920;4.628;2023-02-15T12:01:56;12.60;99.90
15131;DHT22;7666;50.920;4.628;2023-02-15T12:04:49;12.70;99.90
15131;DHT22;7666;50.920;4.628;2023-02-15T12:07:42;12.70;99.90
15131;DHT22;7666;50.920;4.628;2023-02-15T12:10:42;12.60;99.90
15131;DHT22;7666;50.920;4.628;2023-02-15T12:13:30;12.50;99.90
15131;DHT22;7666;50.920;4.628;2023-02-15T12:16:16;12.50;99.90
15131;DHT22;7666;50.920;4.628;2023-02-15T12:19:02;12.50;99.90
15131;DHT22;7666;50.920;4.628;2023-02-15T12:21:50;12.60;99.90
15131;DHT22;7666;50.920;4.628;2023-02-15T12:24:38;12.60;99.90
15131;DHT22;7666;50.920;4.628;2023-02-15T12:27:34;12.60;99.90
15131;DHT22;7666;50.920;4.628;2023-02-15T12:30:35;12.60;99.90
15131;DHT22;7666;50.920;4.628;2023-02-15T12:36:30;12.40;99.90
15131;DHT22;7666;50.920;4.628;2023-02-15T12:39:22;12.30;99.90
15131;DHT22;7666;50.920;4.628;2023-02-15T12:42:16;12.30;99.90
15131;DHT22;7666;50.920;4.628;2023-02-15T12:45:20;12.30;99.90
15131;DHT22;7666;50.920;4.628;2023-02-15T12:51:08;12.40;99.90
15131;DHT22;7666;50.920;4.628;2023-02-15T12:53:54;12.40;99.90
15131;DHT22;7666;50.920;4.628;2023-02-15T12:56:40;12.40;99.90
15131;DHT22;7666;50.920;4.628;2023-02-15T12:59:26;12.60;99.90
15131;DHT22;7666;50.920;4.628;2023-02-15T13:02:24;12.70;99.90
15131;DHT22;7666;50.920;4.628;2023-02-15T13:05:17;12.80;99.90
15131;DHT22;7666;50.920;4.628;2023-02-15T13:08:11;13.00;99.90
15131;DHT22;7666;50.920;4.628;2023-02-15T13:11:08;13.10;99.90
15131;DHT22;7666;50.920;4.628;2023-02-15T13:14:02;13.10;99.90
15131;DHT22;7666;50.920;4.628;2023-02-15T13:16:52;13.20;99.90
15131;DHT22;7666;50.920;4.628;2023-02-15T13:19:43;13.20;99.90
15131;DHT22;7666;50.920;4.628;2023-02-15T13:22:45;13.20;99.90
15131;DHT22;7666;50.920;4.628;2023-02-15T13:25:39;13.30;99.90
15131;DHT22;7666;50.920;4.628;2023-02-15T13:28:42;13.30;99.90
15131;DHT22;7666;50.920;4.628;2023-02-15T13:31:29;13.30;99.90
15131;DHT22;7666;50.920;4.628;2023-02-15T13:34:39;13.40;99.90
15131;DHT22;7666;50.920;4.628;2023-02-15T13:38:45;13.40;99.90
15131;DHT22;7666;50.920;4.628;2023-02-15T13:41:03;13.40;99.90
15131;DHT22;7666;50.920;4.628;2023-02-15T13:47:53;13.50;99.90
15131;DHT22;7666;50.920;4.628;2023-02-15T13:50:52;13.50;99.90
15131;DHT22;7666;50.920;4.628;2023-02-15T13:53:48;13.50;99.90
15131;DHT22;7666;50.920;4.628;2023-02-15T14:02:55;13.40;99.90
15131;DHT22;7666;50.920;4.628;2023-02-15T14:08:58;13.40;99.90
15131;DHT22;7666;50.920;4.628;2023-02-15T14:15:04;13.40;99.90
15131;DHT22;7666;50.920;4.628;2023-02-15T14:21:30;13.50;99.90
15131;DHT22;7666;50.920;4.628;2023-02-15T14:27:37;13.50;99.90
15131;DHT22;7666;50.920;4.628;2023-02-15T14:30:29;13.50;99.90
15131;DHT22;7666;50.920;4.628;2023-02-15T14:33:34;13.50;99.90
15131;DHT22;7666;50.920;4.628;2023-02-15T14:36:23;13.50;99.90
15131;DHT22;7666;50.920;4.628;2023-02-15T14:39:26;13.50;99.90
15131;DHT22;7666;50.920;4.628;2023-02-15T14:42:58;13.50;99.90
15131;DHT22;7666;50.920;4.628;2023-02-15T14:48:52;13.40;99.90
15131;DHT22;7666;50.920;4.628;2023-02-15T14:57:24;13.20;99.90
15131;DHT22;7666;50.920;4.628;2023-02-15T15:00:32;13.20;99.90
15131;DHT22;7666;50.920;4.628;2023-02-15T15:03:23;13.10;99.90
15131;DHT22;7666;50.920;4.628;2023-02-15T15:06:32;13.10;99.90
15131;DHT22;7666;50.920;4.628;2023-02-15T15:09:20;13.00;99.90
15131;DHT22;7666;50.920;4.628;2023-02-15T15:15:15;13.00;99.90
15131;DHT22;7666;50.920;4.628;2023-02-15T15:18:47;13.00;99.90
15131;DHT22;7666;50.920;4.628;2023-02-15T15:33:31;12.80;99.90
15131;DHT22;7666;50.920;4.628;2023-02-15T15:49:23;12.70;99.90
15131;DHT22;7666;50.920;4.628;2023-02-15T15:52:20;12.70;99.90
15131;DHT22;7666;50.920;4.628;2023-02-15T15:55:15;12.60;99.90
15131;DHT22;7666;50.920;4.628;2023-02-15T15:58:05;12.50;99.90
15131;DHT22;7666;50.920;4.628;2023-02-15T16:01:02;12.50;99.90
15131;DHT22;7666;50.920;4.628;2023-02-15T16:03:52;12.40;99.90
15131;DHT22;7666;50.920;4.628;2023-02-15T16:06:40;12.30;99.90
15131;DHT22;7666;50.920;4.628;2023-02-15T16:09:27;12.20;99.90
15131;DHT22;7666;50.920;4.628;2023-02-15T16:12:15;12.10;99.90
15131;DHT22;7666;50.920;4.628;2023-02-15T16:18:23;11.90;99.90
15131;DHT22;7666;50.920;4.628;2023-02-15T16:21:18;11.80;99.90
15131;DHT22;7666;50.920;4.628;2023-02-15T16:27:11;11.60;99.90
15131;DHT22;7666;50.920;4.628;2023-02-15T16:30:24;11.60;99.90
15131;DHT22;7666;50.920;4.628;2023-02-15T16:33:13;11.50;99.90
15131;DHT22;7666;50.920;4.628;2023-02-15T16:36:00;11.40;99.90
15131;DHT22;7666;50.920;4.628;2023-02-15T16:41:37;11.30;99.90
15131;DHT22;7666;50.920;4.628;2023-02-15T16:44:23;11.20;99.90
15131;DHT22;7666;50.920;4.628;2023-02-15T16:47:31;11.10;99.90
15131;DHT22;7666;50.920;4.628;2023-02-15T16:50:23;11.00;99.90
15131;DHT22;7666;50.920;4.628;2023-02-15T16:53:17;10.90;99.90
15131;DHT22;7666;50.920;4.628;2023-02-15T16:56:05;10.80;99.90
15131;DHT22;7666;50.920;4.628;2023-02-15T16:58:53;10.70;99.90
15131;DHT22;7666;50.920;4.628;2023-02-15T17:01:43;10.60;99.90
15131;DHT22;7666;50.920;4.628;2023-02-15T17:04:31;10.50;99.90
15131;DHT22;7666;50.920;4.628;2023-02-15T17:07:19;10.40;99.90
15131;DHT22;7666;50.920;4.628;2023-02-15T17:10:26;10.40;99.90
15131;DHT22;7666;50.920;4.628;2023-02-15T17:13:17;10.30;99.90
15131;DHT22;7666;50.920;4.628;2023-02-15T17:18:49;10.00;99.90
15131;DHT22;7666;50.920;4.628;2023-02-15T17:21:41;9.90;99.90
15131;DHT22;7666;50.920;4.628;2023-02-15T17:24:35;9.90;99.90
15131;DHT22;7666;50.920;4.628;2023-02-15T17:27:24;9.80;99.90
15131;DHT22;7666;50.920;4.628;2023-02-15T17:30:17;9.70;99.90
15131;DHT22;7666;50.920;4.628;2023-02-15T17:33:20;9.70;99.90
15131;DHT22;7666;50.920;4.628;2023-02-15T17:41:44;9.50;99.90
15131;DHT22;7666;50.920;4.628;2023-02-15T17:44:30;9.50;99.90
15131;DHT22;7666;50.920;4.628;2023-02-15T17:47:19;9.50;99.90
15131;DHT22;7666;50.920;4.628;2023-02-15T17:50:07;9.40;99.90
15131;DHT22;7666;50.920;4.628;2023-02-15T17:52:55;9.40;99.90
15131;DHT22;7666;50.920;4.628;2023-02-15T17:55:41;9.40;99.90
15131;DHT22;7666;50.920;4.628;2023-02-15T17:58:28;9.40;99.90
15131;DHT22;7666;50.920;4.628;2023-02-15T18:01:17;9.40;99.90
15131;DHT22;7666;50.920;4.628;2023-02-15T18:04:24;9.40;99.90
15131;DHT22;7666;50.920;4.628;2023-02-15T18:07:28;9.40;99.90
15131;DHT22;7666;50.920;4.628;2023-02-15T18:10:33;9.50;99.90
15131;DHT22;7666;50.920;4.628;2023-02-15T18:13:37;9.50;99.90
15131;DHT22;7666;50.920;4.628;2023-02-15T18:16:24;9.50;99.90
15131;DHT22;7666;50.920;4.628;2023-02-15T18:19:28;9.40;99.90
15131;DHT22;7666;50.920;4.628;2023-02-15T18:22:17;9.40;99.90
15131;DHT22;7666;50.920;4.628;2023-02-15T18:25:03;9.40;99.90
15131;DHT22;7666;50.920;4.628;2023-02-15T18:27:50;9.40;99.90
15131;DHT22;7666;50.920;4.628;2023-02-15T18:30:39;9.40;99.90
15131;DHT22;7666;50.920;4.628;2023-02-15T18:33:34;9.30;99.90
15131;DHT22;7666;50.920;4.628;2023-02-15T18:36:27;9.30;99.90
15131;DHT22;7666;50.920;4.628;2023-02-15T18:39:36;9.30;99.90
15131;DHT22;7666;50.920;4.628;2023-02-15T18:42:27;9.30;99.90
15131;DHT22;7666;50.920;4.628;2023-02-15T18:45:21;9.20;99.90
15131;DHT22;7666;50.920;4.628;2023-02-15T18:48:09;9.20;99.90
15131;DHT22;7666;50.920;4.628;2023-02-15T18:50:55;9.10;99.90
15131;DHT22;7666;50.920;4.628;2023-02-15T18:53:41;9.00;99.90
15131;DHT22;7666;50.920;4.628;2023-02-15T18:56:29;9.00;99.90
15131;DHT22;7666;50.920;4.628;2023-02-15T18:59:18;9.00;99.90
15131;DHT22;7666;50.920;4.628;2023-02-15T19:02:13;9.00;99.90
15131;DHT22;7666;50.920;4.628;2023-02-15T19:04:59;9.00;99.90
15131;DHT22;7666;50.920;4.628;2023-02-15T19:07:46;9.00;99.90
15131;DHT22;7666;50.920;4.628;2023-02-15T19:10:35;8.90;99.90
15131;DHT22;7666;50.920;4.628;2023-02-15T19:13:21;8.90;99.90
15131;DHT22;7666;50.920;4.628;2023-02-15T19:16:34;8.90;99.90
15131;DHT22;7666;50.920;4.628;2023-02-15T19:19:19;8.90;99.90
15131;DHT22;7666;50.920;4.628;2023-02-15T19:22:08;8.80;99.90
15131;DHT22;7666;50.920;4.628;2023-02-15T19:24:57;8.90;99.90
15131;DHT22;7666;50.920;4.628;2023-02-15T19:27:44;8.90;99.90
15131;DHT22;7666;50.920;4.628;2023-02-15T19:30:31;9.00;99.90
15131;DHT22;7666;50.920;4.628;2023-02-15T19:33:19;8.90;99.90
15131;DHT22;7666;50.920;4.628;2023-02-15T19:36:13;9.00;99.90
15131;DHT22;7666;50.920;4.628;2023-02-15T19:39:02;8.90;99.90
15131;DHT22;7666;50.920;4.628;2023-02-15T19:41:48;8.80;99.90
15131;DHT22;7666;50.920;4.628;2023-02-15T19:44:34;8.80;99.90
15131;DHT22;7666;50.920;4.628;2023-02-15T19:47:20;8.80;99.90
15131;DHT22;7666;50.920;4.628;2023-02-15T19:50:07;8.80;99.90
15131;DHT22;7666;50.920;4.628;2023-02-15T19:52:53;8.70;99.90
15131;DHT22;7666;50.920;4.628;2023-02-15T19:55:39;8.70;99.90
15131;DHT22;7666;50.920;4.628;2023-02-15T19:58:25;8.70;99.90
15131;DHT22;7666;50.920;4.628;2023-02-15T20:01:11;8.70;99.90
15131;DHT22;7666;50.920;4.628;2023-02-15T20:03:57;8.60;99.90
15131;DHT22;7666;50.920;4.628;2023-02-15T20:06:45;8.60;99.90
15131;DHT22;7666;50.920;4.628;2023-02-15T20:09:33;8.60;99.90
15131;DHT22;7666;50.920;4.628;2023-02-15T20:12:25;8.60;99.90
15131;DHT22;7666;50.920;4.628;2023-02-15T20:18:02;8.50;99.90
15131;DHT22;7666;50.920;4.628;2023-02-15T20:20:53;8.50;99.90
15131;DHT22;7666;50.920;4.628;2023-02-15T20:23:39;8.40;99.90
15131;DHT22;7666;50.920;4.628;2023-02-15T20:26:25;8.30;99.90
15131;DHT22;7666;50.920;4.628;2023-02-15T20:29:16;8.40;99.90
15131;DHT22;7666;50.920;4.628;2023-02-15T20:32:03;8.30;99.90
15131;DHT22;7666;50.920;4.628;2023-02-15T20:34:49;8.20;99.90
15131;DHT22;7666;50.920;4.628;2023-02-15T20:37:35;8.10;99.90
15131;DHT22;7666;50.920;4.628;2023-02-15T20:40:26;8.10;99.90
15131;DHT22;7666;50.920;4.628;2023-02-15T20:43:14;8.10;99.90
15131;DHT22;7666;50.920;4.628;2023-02-15T20:46:00;8.00;99.90
15131;DHT22;7666;50.920;4.628;2023-02-15T20:48:46;8.00;99.90
15131;DHT22;7666;50.920;4.628;2023-02-15T20:51:32;7.90;99.90
15131;DHT22;7666;50.920;4.628;2023-02-15T20:54:24;7.90;99.90
15131;DHT22;7666;50.920;4.628;2023-02-15T20:57:11;7.90;99.90
15131;DHT22;7666;50.920;4.628;2023-02-15T20:59:57;7.90;99.90